Time;durP1;ratioP1;P1;durP2;ratioP2;P2;SDS_P1;SDS_P2;PMS_P1;PMS_P2;Temp;Humidity;BMP_temperature;BMP_pressure;BME280_temperature;BME280_humidity;BME280_pressure;Samples;Min_cycle;Max_cycle;Signal;HPM_P1;HPM_P2
2023/04/17 00:00:52;;;;;;;8.63;3.85;;;;;;;6.86;62.30;101534.56;1698568;83;21219;-57
2023/04/17 00:03:59;;;;;;;10.00;4.70;;;;;;;6.79;62.22;101544.20;1698543;84;21283;-56
2023/04/17 00:07:06;;;;;;;8.95;4.05;;;;;;;6.72;62.23;101545.70;1699450;83;21279;-56
2023/04/17 00:10:16;;;;;;;13.13;4.30;;;;;;;6.67;62.24;101549.27;1698808;83;21263;-57
2023/04/17 00:13:22;;;;;;;7.20;3.92;;;;;;;6.63;62.29;101545.56;1684080;84;21207;-57
2023/04/17 00:16:27;;;;;;;8.80;5.05;;;;;;;6.60;62.30;101553.45;1698958;83;21227;-56
2023/04/17 00:19:34;;;;;;;7.87;4.50;;;;;;;6.55;62.32;101546.15;1698607;83;21302;-59
2023/04/17 00:22:40;;;;;;;10.48;4.85;;;;;;;6.51;62.29;101546.03;1698630;83;21373;-57
2023/04/17 00:25:48;;;;;;;7.92;4.40;;;;;;;6.46;62.27;101550.97;1698878;83;21345;-57
2023/04/17 00:28:55;;;;;;;8.95;4.45;;;;;;;6.41;62.27;101551.82;1693289;84;21211;-63
2023/04/17 00:31:59;;;;;;;10.88;4.72;;;;;;;6.36;62.23;101556.75;1698550;84;21215;-57
2023/04/17 00:35:06;;;;;;;7.53;4.70;;;;;;;6.32;62.27;101551.67;1698594;84;21243;-56
2023/04/17 00:38:12;;;;;;;8.43;4.30;;;;;;;6.30;62.41;101554.52;1698434;84;21231;-57
2023/04/17 00:41:19;;;;;;;9.48;5.30;;;;;;;6.29;62.52;101554.16;1698336;84;21373;-56
2023/04/17 00:44:25;;;;;;;10.72;6.40;;;;;;;6.29;62.60;101551.44;1698605;84;21231;-56
2023/04/17 00:47:30;;;;;;;10.20;5.10;;;;;;;6.26;62.59;101550.32;1698418;84;21235;-56
2023/04/17 00:50:36;;;;;;;7.75;5.33;;;;;;;6.25;62.61;101558.08;1674995;84;21256;-56
2023/04/17 06:39:26;;;;;;;5.75;2.40;;;;;;;9.90;60.69;101581.84;1686610;80;21706;-57
2023/04/17 06:42:34;;;;;;;6.22;2.20;;;;;;;10.04;60.64;101578.19;1679084;84;21224;-56
2023/04/17 06:45:44;;;;;;;3.77;1.80;;;;;;;10.14;60.49;101575.49;1685752;85;21284;-57
2023/04/17 06:48:58;;;;;;;4.55;1.80;;;;;;;10.22;60.30;101565.56;1671511;84;21762;-56
2023/04/17 06:52:02;;;;;;;28.80;3.98;;;;;;;10.29;60.13;101569.43;1676204;84;21264;-57
2023/04/17 06:55:07;;;;;;;10.00;4.87;;;;;;;10.35;59.97;101572.95;1676870;84;21242;-57
2023/04/17 06:58:15;;;;;;;4.22;2.20;;;;;;;10.45;59.84;101573.81;1679336;84;21239;-57
2023/04/17 07:01:21;;;;;;;5.22;1.95;;;;;;;10.53;59.70;101574.44;1684494;85;21239;-57
2023/04/17 07:04:28;;;;;;;5.03;2.45;;;;;;;10.60;59.55;101566.02;1658331;85;21203;-57
2023/04/17 07:07:35;;;;;;;4.08;2.02;;;;;;;10.67;59.41;101560.32;1647998;86;21281;-57
2023/04/17 07:10:41;;;;;;;7.70;1.90;;;;;;;10.72;59.19;101574.94;1662169;85;21288;-57
2023/04/17 07:13:47;;;;;;;5.65;2.02;;;;;;;10.76;59.08;101570.38;1686192;84;21236;-57
2023/04/17 07:16:52;;;;;;;3.75;1.95;;;;;;;10.83;58.94;101555.59;1683725;85;21782;-57
2023/04/17 07:19:57;;;;;;;5.47;2.25;;;;;;;10.89;58.80;101566.81;1682295;84;21248;-58
2023/04/17 07:23:04;;;;;;;4.05;1.82;;;;;;;10.93;58.59;101563.24;1657840;86;21786;-56
2023/04/17 07:26:09;;;;;;;6.08;2.40;;;;;;;10.99;58.46;101561.30;1658011;85;21288;-58
2023/04/17 07:29:16;;;;;;;4.62;2.20;;;;;;;11.07;58.38;101559.52;1658950;85;21261;-56
2023/04/17 07:32:26;;;;;;;4.12;1.87;;;;;;;11.18;58.29;101565.34;1658438;85;21260;-57
2023/04/17 07:35:32;;;;;;;2.22;1.45;;;;;;;11.29;58.22;101550.06;1658533;85;21221;-58
2023/04/17 07:38:41;;;;;;;4.85;1.98;;;;;;;11.40;58.07;101545.22;1657381;85;21806;-58
2023/04/17 07:41:47;;;;;;;2.98;1.80;;;;;;;11.50;57.89;101552.02;1676481;85;21178;-57
2023/04/17 07:44:54;;;;;;;3.80;1.77;;;;;;;11.59;57.76;101555.23;1675349;85;21183;-56
2023/04/17 07:48:02;;;;;;;5.03;1.80;;;;;;;11.67;57.59;101553.45;1676290;85;21209;-56
2023/04/17 07:51:07;;;;;;;2.83;1.60;;;;;;;11.76;57.44;101548.94;1710663;84;21219;-57
2023/04/17 07:54:13;;;;;;;6.83;2.10;;;;;;;11.81;57.28;101540.58;1711256;84;21216;-57
2023/04/17 07:57:20;;;;;;;4.37;1.90;;;;;;;11.85;57.05;101539.76;1711191;84;21315;-55
2023/04/17 08:00:27;;;;;;;5.87;2.00;;;;;;;11.91;56.93;101540.50;1713399;82;21207;-58
2023/04/17 08:03:35;;;;;;;5.00;1.87;;;;;;;11.97;56.78;101536.62;1701035;81;21200;-57
2023/04/17 08:06:40;;;;;;;5.17;1.98;;;;;;;12.04;56.67;101535.00;1735122;81;21267;-56
2023/04/17 08:09:47;;;;;;;3.47;1.90;;;;;;;12.14;56.62;101529.92;1735812;82;21260;-57
2023/04/17 08:12:55;;;;;;;5.92;2.10;;;;;;;12.21;56.44;101522.26;1710715;83;21216;-58
2023/04/17 08:16:01;;;;;;;2.65;1.82;;;;;;;12.30;56.34;101524.08;1710146;84;21216;-57
2023/04/17 08:19:07;;;;;;;4.90;1.70;;;;;;;12.40;56.25;101513.83;1710271;84;21345;-58
2023/04/17 08:22:14;;;;;;;3.87;1.90;;;;;;;12.49;56.11;101507.41;1681877;84;21277;-59
2023/04/17 08:25:19;;;;;;;5.75;2.87;;;;;;;12.61;56.00;101507.47;1669684;85;21258;-57
2023/04/17 08:28:26;;;;;;;7.60;2.27;;;;;;;12.71;55.86;101508.23;1739000;82;21334;-58
2023/04/17 08:31:35;;;;;;;5.00;2.15;;;;;;;12.81;55.73;101494.38;1709928;82;21228;-57
2023/04/17 08:34:42;;;;;;;5.45;2.40;;;;;;;12.89;55.53;101497.18;1694094;82;21285;-59
2023/04/17 08:37:49;;;;;;;5.95;1.72;;;;;;;12.96;55.34;101494.11;1739015;81;21354;-59
2023/04/17 08:40:58;;;;;;;2.83;1.72;;;;;;;13.04;55.20;101495.05;1702506;83;21278;-57
2023/04/17 08:44:03;;;;;;;7.45;1.95;;;;;;;13.13;55.07;101486.31;1692785;84;21615;-57
2023/04/17 08:47:09;;;;;;;3.37;1.80;;;;;;;13.22;54.94;101483.42;1695987;84;21246;-57
2023/04/17 08:50:18;;;;;;;4.28;1.82;;;;;;;13.35;54.82;101478.86;1695866;84;21764;-59
2023/04/17 08:53:24;;;;;;;4.15;1.80;;;;;;;13.46;54.63;101473.88;1696195;84;21227;-57
2023/04/17 08:56:30;;;;;;;4.20;2.12;;;;;;;13.54;54.43;101460.69;1656190;84;21248;-57
2023/04/17 08:59:36;;;;;;;2.58;1.37;;;;;;;13.65;54.30;101469.12;1669737;85;21226;-58
2023/04/17 09:02:44;;;;;;;4.70;1.90;;;;;;;13.76;54.11;101460.54;1685362;84;21242;-61
2023/04/17 09:05:51;;;;;;;5.28;1.90;;;;;;;13.83;53.89;101451.42;1680792;85;21653;-59
2023/04/17 09:09:06;;;;;;;2.77;1.62;;;;;;;13.91;53.76;101448.68;1673324;85;21846;-63
2023/04/17 09:12:18;;;;;;;7.03;1.90;;;;;;;14.04;53.68;101464.68;1674809;85;21731;-63
2023/04/17 09:15:24;;;;;;;2.17;1.50;;;;;;;14.15;53.51;101445.93;1682094;85;21205;-65
2023/04/17 09:18:35;;;;;;;3.40;1.57;;;;;;;14.25;53.27;101452.16;1682541;84;21740;-64
2023/04/17 09:21:35;;;;;;;1.67;1.05;;;;;;;14.35;53.15;101448.69;1682842;85;21367;-65
2023/04/17 09:24:41;;;;;;;5.37;1.50;;;;;;;14.47;53.04;101440.92;1681712;85;21237;-67
2023/04/17 09:27:48;;;;;;;4.78;1.72;;;;;;;14.57;52.82;101438.84;1682021;85;21249;-64
2023/04/17 09:30:53;;;;;;;6.67;1.50;;;;;;;14.68;52.61;101446.20;1682284;85;21559;-65
2023/04/17 09:34:13;;;;;;;6.30;1.40;;;;;;;14.72;52.33;101437.94;1682721;85;21738;-64
2023/04/17 09:37:20;;;;;;;3.37;1.27;;;;;;;14.83;52.21;101432.55;1663072;85;21253;-63
2023/04/17 09:40:30;;;;;;;4.10;1.60;;;;;;;14.98;52.06;101428.02;1683067;85;21798;-63
2023/04/17 09:43:52;;;;;;;6.28;2.00;;;;;;;15.13;51.95;101426.22;1691443;81;21244;-63
2023/04/17 09:46:57;;;;;;;9.15;4.12;;;;;;;15.25;51.80;101422.55;1691723;85;21398;-64
2023/04/17 09:50:04;;;;;;;8.85;1.92;;;;;;;15.32;51.53;101423.02;1691420;85;21347;-62
2023/04/17 09:53:11;;;;;;;4.15;1.90;;;;;;;15.41;51.35;101417.84;1691360;85;21288;-63
2023/04/17 09:56:16;;;;;;;6.40;1.40;;;;;;;15.45;51.10;101415.55;1690497;83;21840;-63
2023/04/17 09:59:24;;;;;;;10.15;4.58;;;;;;;15.52;50.92;101418.80;1667326;85;21256;-65
2023/04/17 10:02:30;;;;;;;5.70;2.00;;;;;;;15.62;50.77;101408.36;1690834;85;21860;-66
2023/04/17 10:05:37;;;;;;;6.03;1.62;;;;;;;15.73;50.60;101407.93;1682058;83;21298;-61
2023/04/17 10:08:42;;;;;;;3.47;1.47;;;;;;;15.83;50.40;101405.80;1678658;85;21815;-59
2023/04/17 10:11:51;;;;;;;4.85;1.57;;;;;;;15.91;50.20;101382.25;1684602;83;21394;-62
2023/04/17 10:14:57;;;;;;;4.03;1.57;;;;;;;16.01;49.99;101386.14;1685645;85;21224;-59
2023/04/17 10:18:02;;;;;;;5.28;1.60;;;;;;;16.12;49.73;101399.50;1691206;84;21352;-59
2023/04/17 10:21:29;;;;;;;5.30;1.30;;;;;;;16.22;49.52;101388.50;1684235;83;22080;-60
2023/04/17 10:24:35;;;;;;;3.45;1.60;;;;;;;16.32;49.36;101389.61;1663282;86;21274;-58
2023/04/17 10:27:46;;;;;;;6.60;1.40;;;;;;;16.40;49.02;101364.14;1662315;86;21537;-56
2023/04/17 10:31:00;;;;;;;4.35;1.50;;;;;;;16.48;48.91;101374.79;1666694;83;21777;-56
2023/04/17 10:34:06;;;;;;;2.08;1.35;;;;;;;16.58;48.70;101367.08;1653153;84;21224;-57
2023/04/17 10:37:16;;;;;;;3.52;1.37;;;;;;;16.70;48.51;101358.11;1650993;84;21221;-57
2023/04/17 10:40:26;;;;;;;5.72;1.50;;;;;;;16.83;48.38;101351.90;1658111;84;21290;-56
2023/04/17 10:43:31;;;;;;;4.10;1.75;;;;;;;16.98;48.25;101356.90;1674177;83;21223;-56
2023/04/17 10:46:38;;;;;;;3.17;1.50;;;;;;;17.12;48.01;101353.23;1661866;82;21277;-56
2023/04/17 10:50:04;;;;;;;2.87;1.50;;;;;;;17.15;47.78;101344.03;1665770;83;21302;-56
2023/04/17 10:53:10;;;;;;;3.95;1.52;;;;;;;17.11;47.49;101348.22;1607532;87;21286;-56
2023/04/17 10:56:19;;;;;;;6.62;1.52;;;;;;;17.20;47.27;101333.75;1620404;86;21250;-57
2023/04/17 10:59:28;;;;;;;5.60;1.50;;;;;;;17.36;47.24;101330.19;1653067;85;21239;-56
2023/04/17 11:02:44;;;;;;;10.10;1.47;;;;;;;17.53;47.05;101333.61;1686854;83;21770;-55
2023/04/17 11:05:53;;;;;;;4.05;1.50;;;;;;;17.72;46.97;101332.94;1697122;84;21569;-57
2023/04/17 11:08:58;;;;;;;4.25;1.42;;;;;;;17.87;46.71;101313.80;1691803;84;21282;-57
2023/04/17 11:12:07;;;;;;;5.92;1.25;;;;;;;17.99;46.52;101308.56;1682757;85;21277;-59
2023/04/17 11:15:18;;;;;;;6.45;3.10;;;;;;;18.16;46.41;101323.82;1650707;83;21220;-57
2023/04/17 11:18:27;;;;;;;3.70;1.10;;;;;;;18.34;46.10;101313.61;1663877;85;21223;-57
2023/04/17 11:21:33;;;;;;;1.75;1.20;;;;;;;18.55;45.91;101317.17;1695081;84;21296;-57
2023/04/17 11:24:40;;;;;;;4.15;1.47;;;;;;;18.83;45.79;101306.88;1695388;84;21491;-56
2023/04/17 11:27:47;;;;;;;6.03;1.95;;;;;;;19.05;45.57;101308.97;1689836;83;21251;-57
2023/04/17 11:30:53;;;;;;;8.98;5.12;;;;;;;19.27;45.26;101271.14;1692056;83;22056;-58
2023/04/17 11:34:00;;;;;;;4.70;1.32;;;;;;;19.37;44.89;101294.89;1694850;84;21593;-56
2023/04/17 11:37:06;;;;;;;4.47;1.45;;;;;;;19.44;44.56;101291.61;1653465;84;21852;-57
2023/04/17 11:40:14;;;;;;;3.70;1.40;;;;;;;19.60;44.48;101287.03;1667743;84;21242;-58
2023/04/17 11:43:19;;;;;;;5.75;1.37;;;;;;;19.77;44.40;101280.84;1655271;83;21217;-57
2023/04/17 11:46:27;;;;;;;7.67;1.40;;;;;;;19.83;43.96;101273.56;1637658;84;21782;-56
2023/04/17 11:49:37;;;;;;;2.98;1.27;;;;;;;19.87;43.61;101274.86;1658102;84;21266;-57
2023/04/17 11:52:37;;;;;;;4.37;1.42;;;;;;;19.74;43.21;101274.30;1673252;84;21250;-57
2023/04/17 11:55:32;;;;;;;9.08;4.65;;;;;;;19.68;42.98;101278.49;1635349;84;22110;-56
2023/04/17 11:58:18;;;;;;;3.70;1.65;;;;;;;19.66;42.77;101277.84;1626733;84;21756;-57
2023/04/17 12:01:12;;;;;;;6.62;1.57;;;;;;;19.70;42.60;101271.64;1654074;84;21766;-57
2023/04/17 12:04:24;;;;;;;5.22;1.47;;;;;;;19.80;42.54;101265.13;1634844;84;22221;-57
2023/04/17 12:07:31;;;;;;;8.30;1.90;;;;;;;19.98;42.48;101276.98;1659817;84;21226;-57
2023/04/17 12:10:50;;;;;;;7.58;2.02;;;;;;;20.12;42.14;101267.55;1647880;85;21246;-56
2023/04/17 12:13:56;;;;;;;8.05;1.40;;;;;;;20.15;41.88;101260.20;1647047;84;21231;-57
2023/04/17 12:17:01;;;;;;;2.37;1.30;;;;;;;20.20;41.60;101254.84;1656408;84;21197;-57
2023/04/17 12:20:09;;;;;;;3.65;1.40;;;;;;;20.32;41.48;101260.91;1632219;86;21246;-56
2023/04/17 12:23:16;;;;;;;11.15;1.87;;;;;;;20.38;41.21;101256.39;1626136;86;21316;-56
2023/04/17 12:26:24;;;;;;;2.17;1.70;;;;;;;20.27;40.86;101258.45;1636724;85;21259;-57
2023/04/17 12:29:29;;;;;;;4.17;1.82;;;;;;;20.22;40.54;101250.77;1647641;84;21824;-58
2023/04/17 12:32:38;;;;;;;8.70;1.55;;;;;;;20.16;40.31;101250.78;1641733;85;21250;-57
2023/04/17 12:35:45;;;;;;;4.33;1.40;;;;;;;19.99;39.92;101251.75;1663724;84;21252;-58
2023/04/17 12:38:53;;;;;;;2.83;1.45;;;;;;;19.81;39.72;101246.52;1681955;83;21284;-54
2023/04/17 12:41:59;;;;;;;4.60;1.35;;;;;;;19.71;39.54;101244.72;1650353;84;21253;-54
2023/04/17 12:45:06;;;;;;;6.58;1.65;;;;;;;19.63;39.31;101240.21;1657001;84;22250;-56
2023/04/17 12:48:15;;;;;;;3.42;1.40;;;;;;;19.56;39.13;101235.73;1688379;83;21224;-54
2023/04/17 12:51:23;;;;;;;3.30;1.30;;;;;;;19.53;38.86;101236.16;1664175;85;21641;-54
2023/04/17 12:54:29;;;;;;;4.72;1.55;;;;;;;19.46;38.66;101228.34;1660087;84;21238;-55
2023/04/17 12:57:37;;;;;;;5.10;2.08;;;;;;;19.42;38.45;101240.96;1675647;83;21320;-55
2023/04/17 13:00:42;;;;;;;6.55;1.37;;;;;;;19.44;38.33;101236.06;1654770;85;21259;-53
2023/04/17 13:03:50;;;;;;;2.58;1.20;;;;;;;19.47;38.26;101239.80;1683233;83;21223;-54
2023/04/17 13:06:58;;;;;;;3.58;1.57;;;;;;;19.53;38.11;101235.63;1672890;83;21242;-55
2023/04/17 13:10:04;;;;;;;5.28;1.60;;;;;;;19.53;37.83;101209.77;1672243;83;21515;-57
2023/04/17 13:13:10;;;;;;;4.72;1.72;;;;;;;19.51;37.65;101228.04;1669427;83;21223;-56
2023/04/17 13:16:16;;;;;;;4.05;1.67;;;;;;;19.56;37.56;101230.17;1683125;83;21294;-57
2023/04/17 13:19:21;;;;;;;3.35;1.77;;;;;;;19.64;37.44;101236.91;1649623;85;21594;-58
2023/04/17 13:22:26;;;;;;;3.52;1.60;;;;;;;19.72;37.30;101228.36;1678728;85;21871;-59
2023/04/17 13:25:32;;;;;;;4.97;1.70;;;;;;;19.78;37.15;101223.33;1675220;83;22120;-58
2023/04/17 13:28:31;;;;;;;5.53;1.85;;;;;;;19.69;36.83;101235.73;1633173;86;21588;-59
2023/04/17 13:31:37;;;;;;;3.65;1.57;;;;;;;19.69;36.75;101227.41;1677846;83;21215;-61
2023/04/17 13:34:44;;;;;;;5.97;1.70;;;;;;;19.78;36.73;101234.44;1662200;84;21550;-58
2023/04/17 13:37:50;;;;;;;5.72;2.00;;;;;;;19.85;36.54;101222.80;1652833;85;21219;-59
2023/04/17 13:40:56;;;;;;;4.53;1.90;;;;;;;19.88;36.33;101217.67;1665712;85;21808;-59
2023/04/17 13:44:02;;;;;;;4.87;1.70;;;;;;;19.94;36.27;101221.48;1699383;83;21301;-58
2023/04/17 13:47:08;;;;;;;4.08;1.62;;;;;;;20.00;36.14;101211.75;1671535;83;21236;-59
2023/04/17 13:50:15;;;;;;;5.42;1.90;;;;;;;20.12;36.02;101211.39;1673007;84;21249;-59
2023/04/17 13:53:20;;;;;;;5.65;2.05;;;;;;;20.22;35.93;101209.58;1652682;85;21644;-60
2023/04/17 13:56:27;;;;;;;5.97;1.75;;;;;;;20.32;35.76;101205.81;1651043;86;21242;-60
2023/04/17 13:59:35;;;;;;;10.05;2.35;;;;;;;20.33;35.59;101208.91;1644149;86;21214;-58
2023/04/17 14:02:41;;;;;;;2.85;1.60;;;;;;;20.29;35.41;101207.64;1649115;85;21713;-59
2023/04/17 14:05:50;;;;;;;3.92;1.82;;;;;;;20.21;35.12;101213.45;1651895;86;21770;-57
2023/04/17 14:08:57;;;;;;;5.85;1.65;;;;;;;20.05;34.91;101208.31;1678419;85;21267;-57
2023/04/17 14:12:03;;;;;;;3.58;1.50;;;;;;;19.93;34.75;101205.89;1646824;85;22270;-57
2023/04/17 14:15:12;;;;;;;5.37;3.47;;;;;;;19.83;34.66;101199.39;1622552;87;21259;-58
2023/04/17 14:18:19;;;;;;;4.80;2.15;;;;;;;19.69;34.51;101197.70;1672120;83;21774;-59
2023/04/17 14:21:29;;;;;;;8.63;1.90;;;;;;;19.61;34.46;101197.06;1645255;87;21245;-59
2023/04/17 14:24:34;;;;;;;4.87;1.70;;;;;;;19.59;34.39;101189.46;1650953;86;21249;-58
2023/04/17 14:27:41;;;;;;;4.15;1.72;;;;;;;19.56;34.29;101194.06;1652037;86;21252;-58
2023/04/17 14:30:47;;;;;;;4.17;1.50;;;;;;;19.57;34.18;101186.06;1652474;86;21265;-60
2023/04/17 14:33:54;;;;;;;6.00;1.30;;;;;;;19.61;34.13;101182.64;1651437;86;21256;-58
2023/04/17 14:37:01;;;;;;;3.27;1.60;;;;;;;19.63;33.95;101186.59;1650943;85;21804;-59
2023/04/17 14:40:09;;;;;;;4.50;1.60;;;;;;;19.59;33.82;101186.69;1682910;84;21518;-58
2023/04/17 14:43:14;;;;;;;7.42;1.87;;;;;;;19.48;33.69;101179.86;1660690;84;21260;-58
2023/04/17 14:46:20;;;;;;;7.15;2.00;;;;;;;19.48;33.68;101170.67;1654039;85;21313;-57
2023/04/17 14:49:27;;;;;;;3.33;1.85;;;;;;;19.55;33.50;101171.53;1689527;82;21772;-58
2023/04/17 14:52:32;;;;;;;6.83;1.98;;;;;;;19.69;33.33;101169.92;1693029;84;21303;-58
2023/04/17 14:55:38;;;;;;;3.37;1.40;;;;;;;19.80;33.24;101173.42;1693805;84;21211;-59
2023/04/17 14:58:45;;;;;;;7.17;2.10;;;;;;;19.90;33.16;101160.47;1689517;85;21223;-58
2023/04/17 15:01:52;;;;;;;10.23;2.10;;;;;;;19.94;33.05;101158.95;1689771;84;21763;-59
2023/04/17 15:04:59;;;;;;;5.22;1.77;;;;;;;20.01;32.99;101157.85;1668073;86;21226;-59
2023/04/17 15:08:05;;;;;;;6.47;1.80;;;;;;;20.02;32.84;101156.80;1663580;85;21239;-58
2023/04/17 15:11:11;;;;;;;2.70;1.65;;;;;;;19.91;32.74;101161.64;1644940;86;21217;-58
2023/04/17 15:14:19;;;;;;;4.33;1.77;;;;;;;19.74;32.63;101159.55;1650769;86;21223;-59
2023/04/17 15:17:26;;;;;;;7.78;3.40;;;;;;;19.57;32.54;101160.51;1646615;87;21319;-58
2023/04/17 15:20:32;;;;;;;6.25;2.27;;;;;;;19.37;32.45;101158.81;1665946;86;21266;-58
2023/04/17 15:23:39;;;;;;;5.20;2.08;;;;;;;19.17;32.42;101151.30;1679074;83;21563;-58
2023/04/17 15:26:45;;;;;;;4.40;2.40;;;;;;;18.98;32.33;101156.30;1674445;84;21242;-58
2023/04/17 15:29:52;;;;;;;6.25;2.20;;;;;;;18.82;32.28;101151.16;1672354;85;21222;-58
2023/04/17 15:32:59;;;;;;;4.53;2.22;;;;;;;18.68;32.30;101152.20;1672268;85;21250;-58
2023/04/17 15:36:07;;;;;;;5.42;2.42;;;;;;;18.53;32.17;101156.21;1666268;84;21232;-58
2023/04/17 15:39:13;;;;;;;8.63;2.47;;;;;;;18.29;32.10;101153.43;1658362;84;21217;-57
2023/04/17 15:42:21;;;;;;;9.73;2.40;;;;;;;18.11;32.13;101158.67;1671307;85;21860;-62
2023/04/17 15:45:28;;;;;;;6.10;2.33;;;;;;;17.95;32.12;101161.77;1671734;85;21800;-59
2023/04/17 15:48:33;;;;;;;3.08;2.15;;;;;;;17.81;32.09;101164.14;1671493;84;21765;-58
2023/04/17 15:51:40;;;;;;;4.50;1.92;;;;;;;17.69;32.06;101165.78;1693908;84;21791;-58
2023/04/17 15:54:45;;;;;;;4.95;2.17;;;;;;;17.56;32.06;101164.30;1685295;85;21760;-58
2023/04/17 15:57:51;;;;;;;5.03;2.42;;;;;;;17.37;31.96;101163.59;1690980;84;21235;-58
2023/04/17 16:00:56;;;;;;;9.10;2.55;;;;;;;17.24;31.97;101157.94;1687202;84;21222;-58
2023/04/17 16:04:01;;;;;;;3.45;2.12;;;;;;;17.09;31.97;101167.73;1695919;84;21851;-59
2023/04/17 16:07:10;;;;;;;7.78;2.10;;;;;;;16.94;31.96;101172.98;1692465;84;21217;-58
2023/04/17 16:10:17;;;;;;;10.20;5.70;;;;;;;16.76;31.96;101176.20;1673026;85;21807;-58
2023/04/17 16:13:24;;;;;;;6.35;3.27;;;;;;;16.59;31.98;101184.42;1693285;84;21922;-58
2023/04/17 16:16:29;;;;;;;5.12;2.70;;;;;;;16.39;31.97;101175.84;1681990;85;21271;-57
2023/04/17 16:19:35;;;;;;;5.72;2.42;;;;;;;16.22;31.98;101181.27;1690929;84;21353;-57
2023/04/17 16:22:42;;;;;;;4.42;2.95;;;;;;;16.04;32.01;101186.88;1693686;84;21231;-58
2023/04/17 16:25:50;;;;;;;4.08;2.50;;;;;;;15.85;32.05;101188.83;1693580;84;21314;-58
2023/04/17 16:28:57;;;;;;;7.20;2.90;;;;;;;15.68;32.08;101189.53;1692256;84;21220;-58
2023/04/17 16:32:02;;;;;;;8.60;2.92;;;;;;;15.49;32.12;101187.31;1665907;86;21275;-58
2023/04/17 16:35:09;;;;;;;6.35;3.15;;;;;;;15.34;32.17;101196.07;1665812;85;21218;-59
2023/04/17 16:38:16;;;;;;;7.22;2.77;;;;;;;15.18;32.23;101192.08;1665361;86;21218;-58
2023/04/17 16:41:23;;;;;;;5.42;2.55;;;;;;;15.05;32.29;101204.79;1665135;86;21557;-58
2023/04/17 16:44:31;;;;;;;5.05;2.37;;;;;;;14.91;32.36;101201.78;1665172;86;21285;-58
2023/04/17 16:47:37;;;;;;;6.25;2.65;;;;;;;14.78;32.43;101201.52;1665783;86;21481;-58
2023/04/17 16:50:42;;;;;;;6.47;2.47;;;;;;;14.68;32.53;101210.55;1661994;84;21238;-58
2023/04/17 16:53:50;;;;;;;15.80;9.08;;;;;;;14.57;32.58;101213.72;1666725;86;22159;-58
2023/04/17 16:56:56;;;;;;;8.28;3.65;;;;;;;14.47;32.66;101206.73;1656354;86;21838;-59
2023/04/17 17:00:04;;;;;;;8.65;2.60;;;;;;;14.39;32.75;101219.17;1667642;85;21226;-58
2023/04/17 17:03:10;;;;;;;13.53;7.92;;;;;;;14.28;32.80;101220.44;1666680;86;21245;-58
2023/04/17 17:06:16;;;;;;;13.93;5.92;;;;;;;14.18;32.87;101217.50;1666275;86;21325;-59
2023/04/17 17:09:22;;;;;;;7.08;3.55;;;;;;;14.09;32.95;101224.09;1676095;84;21207;-58
2023/04/17 17:12:28;;;;;;;8.43;4.08;;;;;;;14.00;33.01;101230.67;1689604;84;21242;-58
2023/04/17 17:15:35;;;;;;;13.05;5.47;;;;;;;13.90;33.12;101230.01;1690010;84;21223;-57
2023/04/17 17:18:42;;;;;;;12.55;5.08;;;;;;;13.81;33.21;101234.66;1689833;84;21804;-59
2023/04/17 17:21:48;;;;;;;8.08;4.37;;;;;;;13.73;33.30;101233.84;1689875;85;21757;-58
2023/04/17 17:24:56;;;;;;;11.93;3.58;;;;;;;13.65;33.40;101237.98;1689446;85;21262;-58
2023/04/17 17:28:01;;;;;;;8.70;4.12;;;;;;;13.55;33.50;101238.17;1689574;84;21801;-58
2023/04/17 17:31:13;;;;;;;29.65;14.23;;;;;;;13.46;33.59;101240.06;1689292;85;21292;-57
2023/04/17 17:34:21;;;;;;;16.27;6.28;;;;;;;13.39;33.72;101241.80;1690097;84;21717;-59
2023/04/17 17:37:29;;;;;;;12.45;5.10;;;;;;;13.30;33.83;101238.70;1689633;85;21219;-58
2023/04/17 17:40:34;;;;;;;9.85;4.60;;;;;;;13.23;33.90;101240.44;1689813;84;21744;-59
2023/04/17 17:43:41;;;;;;;10.45;5.28;;;;;;;13.15;34.03;101251.43;1689452;85;21752;-58
2023/04/17 17:46:50;;;;;;;9.85;4.97;;;;;;;13.07;34.15;101244.55;1692034;84;21788;-58
2023/04/17 17:49:57;;;;;;;12.10;4.40;;;;;;;13.01;34.29;101245.24;1670351;85;21743;-58
2023/04/17 17:53:04;;;;;;;8.80;3.52;;;;;;;12.92;34.37;101243.45;1675784;83;21225;-58
2023/04/17 17:56:09;;;;;;;6.20;3.25;;;;;;;12.86;34.46;101246.05;1676732;85;21754;-58
2023/04/17 17:59:17;;;;;;;9.63;3.40;;;;;;;12.79;34.54;101244.49;1677754;85;21778;-58
2023/04/17 18:02:22;;;;;;;6.35;3.17;;;;;;;12.73;34.66;101252.02;1677786;85;21236;-58
2023/04/17 18:05:29;;;;;;;24.80;16.30;;;;;;;12.67;34.76;101255.97;1678281;85;21281;-57
2023/04/17 18:08:36;;;;;;;20.17;8.33;;;;;;;12.59;34.87;101251.30;1678155;85;21217;-58
2023/04/17 18:11:41;;;;;;;8.93;4.87;;;;;;;12.52;34.98;101248.89;1675406;85;21557;-58
2023/04/17 18:14:48;;;;;;;16.25;5.62;;;;;;;12.45;35.08;101250.57;1686268;84;21268;-58
2023/04/17 18:17:56;;;;;;;9.98;5.53;;;;;;;12.37;35.17;101245.05;1677725;85;21304;-58
2023/04/17 18:21:03;;;;;;;9.58;4.80;;;;;;;12.28;35.27;101247.93;1696962;84;21756;-58
2023/04/17 18:24:10;;;;;;;5.83;3.37;;;;;;;12.20;35.40;101244.65;1697423;84;21568;-58
2023/04/17 18:27:16;;;;;;;6.33;3.35;;;;;;;12.14;35.47;101249.44;1696720;84;21231;-58
2023/04/17 18:30:23;;;;;;;6.05;3.05;;;;;;;12.06;35.62;101245.28;1696793;83;21937;-58
2023/04/17 18:33:33;;;;;;;4.60;2.77;;;;;;;12.01;35.72;101251.77;1697145;84;21740;-58
2023/04/17 18:36:39;;;;;;;7.92;3.45;;;;;;;11.94;35.82;101248.81;1696882;84;21231;-58
2023/04/17 18:39:45;;;;;;;7.78;3.33;;;;;;;11.89;35.94;101241.58;1696960;84;21795;-58
2023/04/17 18:42:53;;;;;;;7.47;3.83;;;;;;;11.84;36.05;101244.48;1698529;84;21238;-58
2023/04/17 18:46:01;;;;;;;7.95;4.00;;;;;;;11.79;36.16;101244.97;1698217;84;21393;-57
2023/04/17 18:49:08;;;;;;;8.38;4.35;;;;;;;11.77;36.27;101237.91;1679580;84;21374;-58
2023/04/17 18:52:14;;;;;;;10.75;4.60;;;;;;;11.72;36.39;101242.52;1690860;84;21248;-57
2023/04/17 18:55:20;;;;;;;10.80;5.53;;;;;;;11.68;36.49;101234.28;1687496;85;21535;-58
2023/04/17 18:58:26;;;;;;;11.30;6.22;;;;;;;11.65;36.58;101233.73;1687205;85;21224;-58
2023/04/17 19:01:32;;;;;;;11.22;6.20;;;;;;;11.62;36.68;101232.12;1688141;84;21359;-58
2023/04/17 19:04:37;;;;;;;11.95;6.45;;;;;;;11.61;36.79;101238.64;1688198;85;21236;-58
2023/04/17 19:07:45;;;;;;;10.48;5.78;;;;;;;11.59;36.87;101232.98;1687035;84;21236;-58
2023/04/17 19:10:51;;;;;;;12.00;6.58;;;;;;;11.56;36.96;101225.92;1687482;85;21229;-58
2023/04/17 19:13:58;;;;;;;12.78;6.83;;;;;;;11.54;37.06;101226.58;1687598;85;21236;-57
2023/04/17 19:17:05;;;;;;;16.27;7.00;;;;;;;11.53;37.16;101228.12;1688472;84;21370;-57
2023/04/17 19:20:10;;;;;;;13.58;7.10;;;;;;;11.49;37.24;101226.23;1688006;85;21255;-58
2023/04/17 19:23:15;;;;;;;11.35;5.83;;;;;;;11.48;37.34;101225.03;1687361;84;21789;-58
2023/04/17 19:26:21;;;;;;;15.10;7.03;;;;;;;11.44;37.44;101227.72;1687431;84;21251;-57
2023/04/17 19:29:29;;;;;;;9.75;6.30;;;;;;;11.41;37.52;101226.17;1687359;85;21363;-57
2023/04/17 19:32:35;;;;;;;14.60;6.22;;;;;;;11.39;37.60;101220.48;1688437;83;21257;-57
2023/04/17 19:35:42;;;;;;;62.73;37.50;;;;;;;11.36;37.70;101224.42;1686929;85;21355;-57
2023/04/17 19:38:49;;;;;;;25.55;13.15;;;;;;;11.34;37.79;101224.22;1687717;84;21280;-57
2023/04/17 19:41:55;;;;;;;13.03;6.72;;;;;;;11.32;37.90;101220.27;1687286;84;21769;-57
2023/04/17 19:45:04;;;;;;;13.22;6.17;;;;;;;11.29;37.97;101222.48;1687565;85;21406;-57
2023/04/17 19:48:11;;;;;;;11.05;5.70;;;;;;;11.27;38.06;101223.15;1687453;84;21421;-57
2023/04/17 19:51:19;;;;;;;9.98;5.35;;;;;;;11.24;38.15;101223.47;1670382;84;21288;-58
2023/04/17 19:54:24;;;;;;;13.80;5.55;;;;;;;11.21;38.25;101223.80;1688771;83;21821;-58
2023/04/17 19:57:32;;;;;;;9.85;5.00;;;;;;;11.20;38.32;101224.80;1714449;82;21275;-58
2023/04/17 20:00:38;;;;;;;10.32;5.15;;;;;;;11.18;38.39;101221.38;1716509;83;21260;-58
2023/04/17 20:03:45;;;;;;;11.30;4.95;;;;;;;11.16;38.47;101226.15;1717086;83;21375;-58
2023/04/17 20:06:52;;;;;;;11.83;5.10;;;;;;;11.13;38.54;101229.20;1715270;82;21484;-58
2023/04/17 20:10:00;;;;;;;7.05;4.50;;;;;;;11.09;38.64;101228.66;1715336;83;21185;-58
2023/04/17 20:13:06;;;;;;;8.25;4.40;;;;;;;11.05;38.69;101221.76;1716821;82;21216;-57